createdAt,value
2017-10-22T00:01:06.065Z,97301.88
2017-10-22T00:03:33.684Z,97297.64
2017-10-22T00:06:01.160Z,97299.24
2017-10-22T00:08:28.641Z,97298.84
2017-10-22T00:10:56.176Z,97292.96
2017-10-22T00:13:23.684Z,97286.73
2017-10-22T00:15:51.161Z,97288.56
2017-10-22T00:18:18.598Z,97284.62
2017-10-22T00:20:46.048Z,97278.41
2017-10-22T00:23:13.548Z,97272.22
2017-10-22T00:25:40.987Z,97270.11
2017-10-22T00:28:08.439Z,97270.50
2017-10-22T00:30:35.976Z,97272.27
2017-10-22T00:33:03.627Z,97261.77
2017-10-22T00:35:31.097Z,97269.69
2017-10-22T00:37:58.718Z,97272.25
2017-10-22T00:40:26.191Z,97265.73
2017-10-22T00:42:53.625Z,97256.21
2017-10-22T00:45:21.228Z,97262.58
2017-10-22T00:47:48.669Z,97267.68
2017-10-22T00:50:16.130Z,97267.61
2017-10-22T00:52:43.739Z,97256.19
2017-10-22T00:55:11.210Z,97264.72
2017-10-22T00:57:38.628Z,97267.39
2017-10-22T01:00:06.134Z,97256.38
2017-10-22T01:02:33.681Z,97258.63
2017-10-22T01:05:01.160Z,97247.10
2017-10-22T01:07:28.629Z,97250.11
2017-10-22T01:09:56.124Z,97248.26
2017-10-22T01:12:23.560Z,97245.52
2017-10-22T01:14:51.079Z,97246.07
2017-10-22T01:17:18.516Z,97244.08
2017-10-22T01:19:45.973Z,97243.36
2017-10-22T01:22:13.452Z,97242.55
2017-10-22T01:24:40.898Z,97239.49
2017-10-22T01:27:08.404Z,97235.17
2017-10-22T01:29:35.879Z,97228.80
2017-10-22T01:32:03.330Z,97220.92
2017-10-22T01:34:30.810Z,97213.01
2017-10-22T01:36:58.746Z,97206.75
2017-10-22T01:39:26.219Z,97201.39
2017-10-22T01:41:53.688Z,97203.16
2017-10-22T01:44:21.257Z,97199.13
2017-10-22T01:46:48.728Z,97196.63
2017-10-22T01:49:16.179Z,97196.69
2017-10-22T01:51:43.751Z,97201.77
2017-10-22T01:54:11.208Z,97186.71
2017-10-22T01:56:38.667Z,97191.34
2017-10-22T01:59:06.143Z,97202.20
2017-10-22T02:01:33.657Z,97198.45
2017-10-22T02:04:01.209Z,97196.97
2017-10-22T02:06:28.874Z,97193.66
2017-10-22T02:08:56.335Z,97191.94
2017-10-22T02:11:23.804Z,97201.58
2017-10-22T02:13:51.491Z,97195.86
2017-10-22T02:16:19.148Z,97201.14
2017-10-22T02:18:46.582Z,97200.20
2017-10-22T02:21:14.101Z,97196.28
2017-10-22T02:23:41.586Z,97190.91
2017-10-22T02:26:09.050Z,97189.45
2017-10-22T02:28:36.524Z,97195.11
2017-10-22T02:31:04.642Z,97189.77
2017-10-22T02:33:32.068Z,97190.56
2017-10-22T02:35:59.570Z,97195.11
2017-10-22T02:38:27.022Z,97185.08
2017-10-22T02:40:54.481Z,97188.34
2017-10-22T02:43:21.978Z,97175.31
2017-10-22T02:45:49.451Z,97170.17
2017-10-22T02:48:16.955Z,97162.31
2017-10-22T02:50:44.568Z,97162.34
2017-10-22T02:53:12.037Z,97153.03
2017-10-22T02:55:39.611Z,97161.58
2017-10-22T02:58:07.107Z,97168.63
2017-10-22T03:00:34.694Z,97165.42
2017-10-22T03:03:02.164Z,97168.28
2017-10-22T03:05:29.691Z,97162.86
2017-10-22T03:07:57.152Z,97161.38
2017-10-22T03:10:24.633Z,97156.63
2017-10-22T03:12:52.540Z,97155.03
2017-10-22T03:15:20.091Z,97152.14
2017-10-22T03:17:47.589Z,97153.75
2017-10-22T03:20:15.064Z,97162.94
2017-10-22T03:22:42.578Z,97164.31
2017-10-22T03:25:10.070Z,97166.59
2017-10-22T03:27:37.730Z,97167.17
2017-10-22T03:30:06.808Z,97159.80
2017-10-22T03:32:34.284Z,97160.91
2017-10-22T03:35:01.865Z,97160.52
2017-10-22T03:37:29.348Z,97162.31
2017-10-22T03:39:56.819Z,97160.31
2017-10-22T03:42:24.360Z,97158.83
2017-10-22T03:44:51.867Z,97162.09
2017-10-22T03:47:19.321Z,97166.23
2017-10-22T03:49:46.874Z,97164.59
2017-10-22T03:52:14.324Z,97155.03
2017-10-22T03:54:41.755Z,97160.05
2017-10-22T03:57:09.483Z,97155.31
2017-10-22T03:59:36.940Z,97154.42
2017-10-22T04:02:05.328Z,97155.08
2017-10-22T04:04:33.597Z,97148.03
2017-10-22T04:07:01.033Z,97151.66
2017-10-22T04:09:28.509Z,97146.05
2017-10-22T04:11:56.118Z,97141.89
2017-10-22T04:14:23.543Z,97148.48
2017-10-22T04:16:50.975Z,97157.59
2017-10-22T04:19:18.453Z,97145.28
2017-10-22T04:21:45.900Z,97156.16
2017-10-22T04:24:13.401Z,97152.97
2017-10-22T04:26:40.869Z,97154.56
2017-10-22T04:29:08.332Z,97159.16
2017-10-22T04:31:35.800Z,97155.93
2017-10-22T04:34:03.370Z,97153.33
2017-10-22T04:36:30.823Z,97159.66
2017-10-22T04:38:58.283Z,97165.61
2017-10-22T04:41:25.960Z,97155.97
2017-10-22T04:43:53.398Z,97158.45
2017-10-22T04:46:20.943Z,97154.45
2017-10-22T04:48:48.462Z,97153.54
2017-10-22T04:51:15.934Z,97153.81
2017-10-22T04:53:43.376Z,97155.53
2017-10-22T04:56:10.994Z,97153.78
2017-10-22T04:58:38.434Z,97164.10
2017-10-22T05:01:05.862Z,97164.60
2017-10-22T05:03:33.419Z,97170.48
2017-10-22T05:06:00.930Z,97168.28
2017-10-22T05:08:28.408Z,97165.20
2017-10-22T05:10:55.894Z,97169.16
2017-10-22T05:13:23.351Z,97167.95
2017-10-22T05:15:50.844Z,97166.61
2017-10-22T05:18:18.324Z,97171.19
2017-10-22T05:20:45.807Z,97169.38
2017-10-22T05:23:13.257Z,97180.04
2017-10-22T05:25:40.763Z,97174.33
2017-10-22T05:28:08.193Z,97179.34
2017-10-22T05:30:35.632Z,97163.48
2017-10-22T05:33:03.229Z,97175.81
2017-10-22T05:35:30.686Z,97178.59
2017-10-22T05:37:58.282Z,97179.36
2017-10-22T05:40:26.660Z,97182.61
2017-10-22T05:42:54.181Z,97188.97
2017-10-22T05:45:25.616Z,97187.84
2017-10-22T05:47:53.394Z,97187.64
2017-10-22T05:50:21.741Z,97186.95
2017-10-22T05:52:49.169Z,97189.41
2017-10-22T05:55:16.705Z,97190.98
2017-10-22T05:57:44.181Z,97191.45
2017-10-22T06:00:11.694Z,97192.37
2017-10-22T06:02:39.247Z,97196.73
2017-10-22T06:05:07.635Z,97201.96
2017-10-22T06:07:35.189Z,97205.28
2017-10-22T06:10:02.738Z,97207.80
2017-10-22T06:12:30.223Z,97214.02
2017-10-22T06:14:57.713Z,97207.66
2017-10-22T06:17:25.230Z,97214.58
2017-10-22T06:19:52.698Z,97217.77
2017-10-22T06:22:20.479Z,97226.65
2017-10-22T06:24:48.015Z,97233.86
2017-10-22T06:27:15.598Z,97226.30
2017-10-22T06:29:43.085Z,97226.78
2017-10-22T06:32:10.573Z,97239.28
2017-10-22T06:34:38.038Z,97232.66
2017-10-22T06:37:05.482Z,97233.44
2017-10-22T06:39:32.968Z,97223.27
2017-10-22T06:42:00.427Z,97226.65
2017-10-22T06:44:27.862Z,97219.86
2017-10-22T06:46:55.386Z,97228.20
2017-10-22T06:49:22.883Z,97224.04
2017-10-22T06:51:50.427Z,97235.67
2017-10-22T06:54:18.853Z,97233.81
2017-10-22T06:56:46.390Z,97239.83
2017-10-22T06:59:13.938Z,97240.96
2017-10-22T07:01:41.397Z,97240.57
2017-10-22T07:04:08.858Z,97238.92
2017-10-22T07:06:36.322Z,97240.49
2017-10-22T07:09:03.804Z,97241.99
2017-10-22T07:11:31.277Z,97246.24
2017-10-22T07:13:58.804Z,97251.65
2017-10-22T07:16:27.243Z,97254.44
2017-10-22T07:18:54.676Z,97252.53
2017-10-22T07:21:22.097Z,97249.23
2017-10-22T07:23:50.550Z,97253.99
2017-10-22T07:26:17.997Z,97251.56
2017-10-22T07:28:45.435Z,97246.03
2017-10-22T07:31:13.334Z,97239.17
2017-10-22T07:33:40.795Z,97243.43
2017-10-22T07:36:08.257Z,97237.89
2017-10-22T07:38:35.709Z,97240.20
2017-10-22T07:41:03.189Z,97240.04
2017-10-22T07:43:30.672Z,97242.66
2017-10-22T07:45:58.226Z,97246.89
2017-10-22T07:48:25.836Z,97244.14
2017-10-22T07:50:53.305Z,97254.61
2017-10-22T07:53:20.780Z,97250.47
2017-10-22T07:55:48.318Z,97251.45
2017-10-22T07:58:15.751Z,97245.65
2017-10-22T08:00:43.261Z,97238.50
2017-10-22T08:03:10.825Z,97234.41
2017-10-22T08:05:38.351Z,97220.98
2017-10-22T08:08:05.840Z,97226.64
2017-10-22T08:10:33.318Z,97226.83
2017-10-22T08:13:00.809Z,97223.92
2017-10-22T08:15:28.403Z,97227.83
2017-10-22T08:17:55.944Z,97226.17
2017-10-22T08:20:23.414Z,97232.88
2017-10-22T08:22:51.020Z,97219.57
2017-10-22T08:25:19.480Z,97217.99
2017-10-22T08:27:47.200Z,97214.81
2017-10-22T08:30:20.001Z,97215.73
2017-10-22T08:32:47.534Z,97199.93
2017-10-22T08:35:16.874Z,97213.28
2017-10-22T08:37:45.892Z,97202.05
2017-10-22T08:40:13.531Z,97205.20
2017-10-22T08:42:42.629Z,97211.41
2017-10-22T08:45:10.935Z,97216.31
2017-10-22T08:47:38.520Z,97218.09
2017-10-22T08:50:06.011Z,97214.48
2017-10-22T08:52:33.543Z,97223.80
2017-10-22T08:55:01.222Z,97213.00
2017-10-22T08:57:28.668Z,97217.89
2017-10-22T08:59:56.197Z,97219.39
2017-10-22T09:02:25.633Z,97212.47
2017-10-22T09:04:53.105Z,97225.05
2017-10-22T09:07:20.671Z,97223.88
2017-10-22T09:09:48.210Z,97225.95
2017-10-22T09:12:16.092Z,97236.38
2017-10-22T09:14:43.725Z,97232.87
2017-10-22T09:17:12.165Z,97225.44
2017-10-22T09:19:40.673Z,97225.84
2017-10-22T09:22:08.218Z,97217.20
2017-10-22T09:24:35.796Z,97212.59
2017-10-22T09:27:03.220Z,97212.11
2017-10-22T09:29:30.819Z,97215.33
2017-10-22T09:31:58.389Z,97200.80
2017-10-22T09:34:31.801Z,97204.01
2017-10-22T09:37:00.918Z,97205.95
2017-10-22T09:39:28.631Z,97198.42
2017-10-22T09:41:56.223Z,97202.13
2017-10-22T09:44:23.702Z,97205.67
2017-10-22T09:46:51.904Z,97205.58
2017-10-22T09:49:19.629Z,97210.41
2017-10-22T09:51:47.126Z,97194.73
2017-10-22T09:54:14.624Z,97197.38
2017-10-22T09:56:42.156Z,97200.13
2017-10-22T09:59:10.133Z,97203.34
2017-10-22T10:01:37.698Z,97208.29
2017-10-22T10:04:05.209Z,97206.45
2017-10-22T10:06:33.776Z,97203.86
2017-10-22T10:09:01.268Z,97206.84
2017-10-22T10:11:28.753Z,97207.01
2017-10-22T10:13:56.325Z,97195.52
2017-10-22T10:16:23.837Z,97192.20
2017-10-22T10:18:51.314Z,97194.17
2017-10-22T10:21:18.902Z,97192.16
2017-10-22T10:23:46.364Z,97191.58
2017-10-22T10:26:13.909Z,97181.32
2017-10-22T10:28:41.475Z,97185.08
2017-10-22T10:31:08.914Z,97185.17
2017-10-22T10:33:36.761Z,97179.30
2017-10-22T10:36:05.502Z,97172.87
2017-10-22T10:38:33.001Z,97162.15
2017-10-22T10:41:00.609Z,97159.36
2017-10-22T10:43:29.666Z,97149.20
2017-10-22T10:45:57.138Z,97152.16
2017-10-22T10:48:24.742Z,97147.08
2017-10-22T10:50:52.344Z,97154.81
2017-10-22T10:53:19.792Z,97161.09
2017-10-22T10:55:47.356Z,97165.89
2017-10-22T10:58:15.846Z,97169.59
2017-10-22T11:00:43.287Z,97156.35
2017-10-22T11:03:10.857Z,97163.52
2017-10-22T11:05:38.376Z,97159.20
2017-10-22T11:08:06.016Z,97150.52
2017-10-22T11:10:34.654Z,97149.39
2017-10-22T11:13:02.529Z,97145.67
2017-10-22T11:15:29.986Z,97140.07
2017-10-22T11:17:57.467Z,97130.53
2017-10-22T11:20:25.048Z,97121.55
2017-10-22T11:22:53.499Z,97122.60
2017-10-22T11:25:21.114Z,97115.68
2017-10-22T11:27:48.669Z,97106.61
2017-10-22T11:30:16.132Z,97101.97
2017-10-22T11:32:43.606Z,97106.88
2017-10-22T11:35:11.107Z,97095.05
2017-10-22T11:37:38.565Z,97098.66
2017-10-22T11:40:06.007Z,97093.86
2017-10-22T11:42:33.483Z,97089.44
2017-10-22T11:45:00.986Z,97102.09
2017-10-22T11:47:28.437Z,97092.84
2017-10-22T11:49:56.026Z,97083.13
2017-10-22T11:52:24.342Z,97081.27
2017-10-22T11:54:51.846Z,97081.54
2017-10-22T11:57:19.413Z,97073.77
2017-10-22T11:59:46.865Z,97075.38
2017-10-22T12:02:14.462Z,97067.13
2017-10-22T12:04:41.938Z,97073.06
2017-10-22T12:07:09.389Z,97080.88
2017-10-22T12:09:37.224Z,97077.16
2017-10-22T12:12:04.728Z,97079.73
2017-10-22T12:14:32.222Z,97081.37
2017-10-22T12:16:59.712Z,97077.61
2017-10-22T12:19:27.276Z,97069.23
2017-10-22T12:21:54.737Z,97077.88
2017-10-22T12:24:22.228Z,97070.16
2017-10-22T12:26:49.701Z,97072.88
2017-10-22T12:29:17.224Z,97067.94
2017-10-22T12:31:44.659Z,97062.16
2017-10-22T12:34:12.124Z,97066.15
2017-10-22T12:36:39.629Z,97075.28
2017-10-22T12:39:07.266Z,97062.83
2017-10-22T12:41:34.715Z,97069.45
2017-10-22T12:44:02.176Z,97062.98
2017-10-22T12:46:29.596Z,97058.98
2017-10-22T12:48:57.051Z,97062.05
2017-10-22T12:51:24.472Z,97059.93
2017-10-22T12:53:51.937Z,97063.09
2017-10-22T12:56:19.517Z,97062.08
2017-10-22T12:58:47.023Z,97068.73
2017-10-22T13:01:14.533Z,97063.36
2017-10-22T13:03:42.059Z,97057.52
2017-10-22T13:06:09.592Z,97049.20
2017-10-22T13:08:37.019Z,97048.33
2017-10-22T13:11:04.506Z,97036.44
2017-10-22T13:13:31.955Z,97032.14
2017-10-22T13:15:59.463Z,97034.91
2017-10-22T13:18:26.959Z,97013.20
2017-10-22T13:20:54.468Z,97019.78
2017-10-22T13:23:21.927Z,97019.73
2017-10-22T13:25:49.805Z,97035.05
2017-10-22T13:28:17.357Z,97053.34
2017-10-22T13:30:44.826Z,97047.63
2017-10-22T13:33:12.324Z,97042.29
2017-10-22T13:35:39.979Z,97040.11
2017-10-22T13:38:07.528Z,97044.72
2017-10-22T13:40:35.396Z,97043.37
2017-10-22T13:43:02.853Z,97040.41
2017-10-22T13:45:30.278Z,97040.20
2017-10-22T13:47:57.770Z,97041.13
2017-10-22T13:50:25.292Z,97044.02
2017-10-22T13:52:52.840Z,97043.16
2017-10-22T13:55:20.434Z,97038.39
2017-10-22T13:57:47.977Z,97038.98
2017-10-22T14:00:15.483Z,97039.28
2017-10-22T14:02:43.019Z,97043.45
2017-10-22T14:05:10.505Z,97038.25
2017-10-22T14:07:37.955Z,97037.98
2017-10-22T14:10:05.603Z,97039.53
2017-10-22T14:12:33.144Z,97043.92
2017-10-22T14:15:00.679Z,97046.50
2017-10-22T14:17:28.257Z,97053.78
2017-10-22T14:19:55.817Z,97054.45
2017-10-22T14:22:23.258Z,97052.50
2017-10-22T14:24:50.791Z,97064.28
2017-10-22T14:27:18.259Z,97057.52
2017-10-22T14:29:45.771Z,97060.96
2017-10-22T14:32:13.316Z,97066.00
2017-10-22T14:34:40.768Z,97053.91
2017-10-22T14:40:24.800Z,97061.83
2017-10-22T14:42:52.318Z,97049.38
2017-10-22T14:45:19.774Z,97050.83
2017-10-22T14:47:47.279Z,97040.74
2017-10-22T14:50:14.751Z,97056.80
2017-10-22T14:52:42.331Z,97052.25
2017-10-22T14:55:09.809Z,97052.73
2017-10-22T14:57:37.388Z,97056.63
2017-10-22T15:00:05.009Z,97066.52
2017-10-22T15:02:32.510Z,97066.59
2017-10-22T15:05:00.074Z,97071.92
2017-10-22T15:07:27.533Z,97067.59
2017-10-22T15:09:55.139Z,97070.34
2017-10-22T15:12:22.701Z,97068.31
2017-10-22T15:14:50.210Z,97072.34
2017-10-22T15:17:17.738Z,97079.56
2017-10-22T15:19:45.201Z,97076.33
2017-10-22T15:22:12.726Z,97077.96
2017-10-22T15:24:40.185Z,97081.27
2017-10-22T15:27:07.737Z,97082.97
2017-10-22T15:29:35.260Z,97085.34
2017-10-22T15:32:02.685Z,97085.06
2017-10-22T15:34:30.188Z,97093.01
2017-10-22T15:36:57.651Z,97084.55
2017-10-22T15:39:26.941Z,97081.80
2017-10-22T15:41:54.793Z,97081.20
2017-10-22T15:44:22.279Z,97087.17
2017-10-22T15:46:49.770Z,97091.05
2017-10-22T15:49:17.259Z,97099.39
2017-10-22T15:51:44.731Z,97113.48
2017-10-22T15:54:12.199Z,97113.72
2017-10-22T15:56:39.813Z,97123.74
2017-10-22T15:59:07.280Z,97128.89
2017-10-22T16:01:34.732Z,97134.20
2017-10-22T16:04:02.211Z,97141.05
2017-10-22T16:06:29.659Z,97137.39
2017-10-22T16:08:57.096Z,97140.34
2017-10-22T16:11:24.749Z,97151.06
2017-10-22T16:13:52.240Z,97140.64
2017-10-22T16:16:20.008Z,97155.73
2017-10-22T16:18:47.748Z,97159.45
2017-10-22T16:21:15.271Z,97153.27
2017-10-22T16:23:42.830Z,97160.98
2017-10-22T16:26:10.384Z,97158.73
2017-10-22T16:28:37.908Z,97158.87
2017-10-22T16:31:05.785Z,97168.44
2017-10-22T16:33:33.234Z,97159.78
2017-10-22T16:36:00.811Z,97163.40
2017-10-22T16:38:29.004Z,97172.59
2017-10-22T16:40:56.767Z,97172.36
2017-10-22T16:43:24.305Z,97181.77
2017-10-22T16:45:51.903Z,97187.23
2017-10-22T16:48:19.422Z,97197.63
2017-10-22T16:50:46.863Z,97202.59
2017-10-22T16:53:14.381Z,97194.49
2017-10-22T16:55:41.983Z,97200.97
2017-10-22T16:58:09.632Z,97201.68
2017-10-22T17:00:37.188Z,97205.92
2017-10-22T17:03:04.759Z,97215.15
2017-10-22T17:05:34.762Z,97207.33
2017-10-22T17:08:02.357Z,97215.91
2017-10-22T17:10:29.885Z,97214.70
2017-10-22T17:12:57.360Z,97225.34
2017-10-22T17:15:24.874Z,97226.75
2017-10-22T17:17:53.057Z,97239.44
2017-10-22T17:20:20.538Z,97242.06
2017-10-22T17:22:48.025Z,97244.36
2017-10-22T17:25:15.601Z,97238.16
2017-10-22T17:27:43.135Z,97242.48
2017-10-22T17:30:10.958Z,97247.48
2017-10-22T17:32:38.664Z,97244.73
2017-10-22T17:35:07.083Z,97248.11
2017-10-22T17:37:35.674Z,97244.58
2017-10-22T17:40:03.244Z,97243.44
2017-10-22T17:42:30.855Z,97239.45
2017-10-22T17:44:58.538Z,97244.88
2017-10-22T17:47:27.392Z,97243.26
2017-10-22T17:49:54.832Z,97252.34
2017-10-22T17:52:22.358Z,97252.41
2017-10-22T17:54:49.860Z,97255.59
2017-10-22T17:57:17.304Z,97255.39
2017-10-22T17:59:49.872Z,97257.95
2017-10-22T18:02:17.377Z,97254.72
2017-10-22T18:04:44.904Z,97258.09
2017-10-22T18:07:12.373Z,97256.88
2017-10-22T18:09:39.930Z,97258.88
2017-10-22T18:12:07.433Z,97261.33
2017-10-22T18:14:35.023Z,97264.66
2017-10-22T18:17:02.562Z,97255.88
2017-10-22T18:19:30.010Z,97254.88
2017-10-22T18:21:57.532Z,97258.89
2017-10-22T18:24:26.103Z,97254.94
2017-10-22T18:26:53.530Z,97252.91
2017-10-22T18:29:21.012Z,97252.20
2017-10-22T18:31:48.580Z,97251.70
2017-10-22T18:34:16.107Z,97252.17
2017-10-22T18:36:43.635Z,97258.11
2017-10-22T18:39:11.216Z,97264.39
2017-10-22T18:41:38.685Z,97259.68
2017-10-22T18:44:07.520Z,97265.97
2017-10-22T18:46:35.277Z,97261.45
2017-10-22T18:49:02.738Z,97254.03
2017-10-22T18:51:30.204Z,97255.31
2017-10-22T18:53:57.706Z,97254.89
2017-10-22T18:56:25.239Z,97258.85
2017-10-22T18:58:52.884Z,97260.97
2017-10-22T19:01:20.566Z,97258.73
2017-10-22T19:03:48.203Z,97258.19
2017-10-22T19:06:15.974Z,97259.59
2017-10-22T19:08:43.836Z,97263.95
2017-10-22T19:11:11.718Z,97262.69
2017-10-22T19:13:39.354Z,97269.52
2017-10-22T19:16:06.911Z,97270.61
2017-10-22T19:18:35.073Z,97270.99
2017-10-22T19:21:02.663Z,97270.84
2017-10-22T19:23:30.378Z,97270.55
2017-10-22T19:25:57.953Z,97271.70
2017-10-22T19:28:25.696Z,97271.58
2017-10-22T19:30:53.344Z,97273.31
2017-10-22T19:33:21.108Z,97266.67
2017-10-22T19:35:48.925Z,97270.09
2017-10-22T19:38:16.721Z,97264.92
2017-10-22T19:40:44.398Z,97273.05
2017-10-22T19:43:12.048Z,97279.34
2017-10-22T19:45:39.717Z,97276.55
2017-10-22T19:48:07.354Z,97275.88
2017-10-22T19:50:35.049Z,97276.27
2017-10-22T19:53:02.800Z,97283.54
2017-10-22T19:55:30.401Z,97282.56
2017-10-22T19:57:58.146Z,97278.39
2017-10-22T20:00:26.146Z,97279.13
2017-10-22T20:02:53.786Z,97287.73
2017-10-22T20:05:21.532Z,97289.86
2017-10-22T20:07:49.186Z,97281.53
2017-10-22T20:10:16.786Z,97282.98
2017-10-22T20:12:44.413Z,97289.55
2017-10-22T20:15:12.178Z,97278.98
2017-10-22T20:17:39.758Z,97279.96
2017-10-22T20:20:07.345Z,97282.28
2017-10-22T20:22:35.167Z,97279.96
2017-10-22T20:25:03.608Z,97278.58
2017-10-22T20:27:31.127Z,97275.55
2017-10-22T20:29:58.789Z,97281.17
2017-10-22T20:32:26.255Z,97279.56
2017-10-22T20:34:53.988Z,97276.89
2017-10-22T20:37:21.759Z,97288.30
2017-10-22T20:39:49.363Z,97288.19
2017-10-22T20:42:16.965Z,97291.30
2017-10-22T20:44:44.538Z,97289.11
2017-10-22T20:47:12.037Z,97295.00
2017-10-22T20:49:39.573Z,97299.36
2017-10-22T20:52:07.667Z,97302.98
2017-10-22T20:54:35.303Z,97301.33
2017-10-22T20:57:02.726Z,97306.66
2017-10-22T20:59:30.314Z,97304.22
2017-10-22T21:01:57.844Z,97305.67
2017-10-22T21:04:25.427Z,97306.62
2017-10-22T21:06:53.113Z,97312.13
2017-10-22T21:09:20.656Z,97308.04
2017-10-22T21:11:48.174Z,97317.70
2017-10-22T21:14:15.869Z,97319.31
2017-10-22T21:16:43.436Z,97314.33
2017-10-22T21:19:10.904Z,97321.48
2017-10-22T21:21:38.751Z,97322.92
2017-10-22T21:24:06.295Z,97318.72
2017-10-22T21:26:33.758Z,97321.62
2017-10-22T21:29:01.404Z,97323.70
2017-10-22T21:31:28.836Z,97319.22
2017-10-22T21:33:56.269Z,97323.23
2017-10-22T21:36:23.877Z,97329.92
2017-10-22T21:38:51.432Z,97336.25
2017-10-22T21:41:18.920Z,97329.81
2017-10-22T21:43:46.605Z,97332.91
2017-10-22T21:46:14.161Z,97334.41
2017-10-22T21:48:41.633Z,97332.56
2017-10-22T21:51:09.250Z,97330.44
2017-10-22T21:53:36.688Z,97339.36
2017-10-22T21:56:04.152Z,97335.91
2017-10-22T21:58:31.903Z,97333.39
2017-10-22T22:01:00.441Z,97339.56
2017-10-22T22:03:28.085Z,97336.53
2017-10-22T22:05:55.558Z,97331.11
2017-10-22T22:08:22.995Z,97335.91
2017-10-22T22:10:50.462Z,97330.52
2017-10-22T22:13:18.015Z,97327.84
2017-10-22T22:15:45.706Z,97328.31
2017-10-22T22:18:13.208Z,97330.95
2017-10-22T22:20:40.716Z,97330.44
2017-10-22T22:23:08.295Z,97331.30
2017-10-22T22:25:35.855Z,97331.89
2017-10-22T22:28:03.344Z,97333.62
2017-10-22T22:30:30.840Z,97336.77
2017-10-22T22:32:58.433Z,97331.73
2017-10-22T22:35:25.942Z,97323.88
2017-10-22T22:37:53.390Z,97337.75
2017-10-22T22:40:20.898Z,97340.70
2017-10-22T22:42:48.368Z,97332.83
2017-10-22T22:45:15.929Z,97327.05
2017-10-22T22:47:43.405Z,97327.17
2017-10-22T22:50:11.438Z,97333.94
2017-10-22T22:52:38.921Z,97335.83
2017-10-22T22:55:07.206Z,97330.12
2017-10-22T22:57:34.813Z,97335.39
2017-10-22T23:00:02.260Z,97333.20
2017-10-22T23:02:29.847Z,97332.72
2017-10-22T23:04:57.361Z,97339.83
2017-10-22T23:07:24.839Z,97329.97
2017-10-22T23:09:52.504Z,97333.78
2017-10-22T23:12:20.006Z,97336.34
2017-10-22T23:14:47.461Z,97338.58
2017-10-22T23:17:15.048Z,97346.80
2017-10-22T23:19:42.600Z,97350.45
2017-10-22T23:22:10.113Z,97355.13
2017-10-22T23:24:37.622Z,97362.71
2017-10-22T23:27:05.158Z,97353.83
2017-10-22T23:29:32.643Z,97357.33
2017-10-22T23:32:00.085Z,97359.09
2017-10-22T23:34:27.599Z,97358.23
2017-10-22T23:36:55.059Z,97355.59
2017-10-22T23:39:22.581Z,97351.62
2017-10-22T23:41:50.096Z,97353.07
2017-10-22T23:44:17.564Z,97350.52
2017-10-22T23:46:45.059Z,97344.46
2017-10-22T23:49:12.537Z,97349.89
2017-10-22T23:51:40.063Z,97343.17
2017-10-22T23:54:07.500Z,97340.89
2017-10-22T23:56:35.072Z,97336.76
2017-10-22T23:59:02.557Z,97338.09
